createdAt,value
2017-10-07T00:00:06.494Z,4.63
2017-10-07T00:02:34.019Z,9.20
2017-10-07T00:05:01.511Z,14.20
2017-10-07T00:07:29.036Z,6.10
2017-10-07T00:09:56.595Z,10.07
2017-10-07T00:12:24.152Z,5.03
2017-10-07T00:14:51.640Z,5.57
2017-10-07T00:17:19.158Z,5.10
2017-10-07T00:19:46.666Z,5.30
2017-10-07T00:22:14.211Z,4.87
2017-10-07T00:24:41.708Z,10.93
2017-10-07T00:27:09.196Z,17.70
2017-10-07T00:29:36.718Z,10.90
2017-10-07T00:32:04.199Z,6.03
2017-10-07T00:34:31.679Z,4.90
2017-10-07T00:36:59.241Z,5.40
2017-10-07T00:39:26.732Z,12.10
2017-10-07T00:41:54.222Z,6.10
2017-10-07T00:44:21.798Z,5.73
2017-10-07T00:46:49.374Z,10.13
2017-10-07T00:49:16.924Z,6.30
2017-10-07T00:51:44.459Z,10.27
2017-10-07T00:54:11.958Z,5.13
2017-10-07T00:56:39.452Z,3.67
2017-10-07T00:59:06.992Z,4.60
2017-10-07T01:01:34.476Z,8.83
2017-10-07T01:04:01.964Z,8.00
2017-10-07T01:06:29.493Z,8.30
2017-10-07T01:08:56.980Z,5.00
2017-10-07T01:11:24.539Z,7.00
2017-10-07T01:13:52.027Z,6.27
2017-10-07T01:16:19.507Z,8.83
2017-10-07T01:18:47.035Z,4.90
2017-10-07T01:21:14.531Z,5.47
2017-10-07T01:23:42.024Z,3.50
2017-10-07T01:26:09.571Z,6.87
2017-10-07T01:28:37.066Z,8.90
2017-10-07T01:31:04.631Z,3.13
2017-10-07T01:33:32.176Z,4.50
2017-10-07T01:35:59.701Z,5.77
2017-10-07T01:38:27.294Z,5.50
2017-10-07T01:40:54.770Z,6.10
2017-10-07T01:43:22.309Z,7.07
2017-10-07T01:45:49.822Z,4.10
2017-10-07T01:48:17.351Z,5.33
2017-10-07T01:50:44.834Z,4.53
2017-10-07T01:53:12.349Z,4.63
2017-10-07T01:55:39.839Z,5.60
2017-10-07T01:58:07.380Z,4.87
2017-10-07T02:00:34.860Z,4.43
2017-10-07T02:03:02.379Z,4.60
2017-10-07T02:05:29.892Z,4.20
2017-10-07T02:07:57.375Z,5.13
2017-10-07T02:10:24.924Z,7.40
2017-10-07T02:12:52.408Z,5.43
2017-10-07T02:15:19.896Z,4.80
2017-10-07T02:17:47.444Z,5.33
2017-10-07T02:20:14.989Z,4.33
2017-10-07T02:22:42.543Z,5.53
2017-10-07T02:25:10.059Z,7.23
2017-10-07T02:27:37.544Z,5.73
2017-10-07T02:30:05.081Z,3.93
2017-10-07T02:32:32.565Z,6.90
2017-10-07T02:35:00.136Z,4.10
2017-10-07T02:37:27.620Z,6.50
2017-10-07T02:39:55.111Z,4.80
2017-10-07T02:42:22.654Z,4.20
2017-10-07T02:44:50.136Z,7.00
2017-10-07T02:47:17.619Z,4.53
2017-10-07T02:49:45.147Z,5.67
2017-10-07T02:52:12.644Z,5.50
2017-10-07T02:54:40.172Z,4.40
2017-10-07T02:57:07.662Z,5.70
2017-10-07T02:59:35.148Z,5.07
2017-10-07T03:02:02.710Z,4.73
2017-10-07T03:04:30.209Z,4.00
2017-10-07T03:06:57.700Z,4.63
2017-10-07T03:09:25.221Z,6.07
2017-10-07T03:11:52.812Z,5.20
2017-10-07T03:14:20.373Z,4.47
2017-10-07T03:16:48.032Z,4.20
2017-10-07T03:19:15.534Z,6.37
2017-10-07T03:21:43.058Z,4.60
2017-10-07T03:24:10.552Z,4.40
2017-10-07T03:26:38.084Z,5.13
2017-10-07T03:29:05.610Z,5.63
2017-10-07T03:31:33.098Z,4.57
2017-10-07T03:34:00.640Z,6.17
2017-10-07T03:36:28.221Z,6.70
2017-10-07T03:41:29.955Z,4.63
2017-10-07T03:43:57.450Z,4.83
2017-10-07T03:46:24.939Z,6.07
2017-10-07T03:48:52.552Z,4.50
2017-10-07T03:51:20.045Z,3.87
2017-10-07T03:53:47.536Z,5.53
2017-10-07T03:56:15.122Z,5.60
2017-10-07T03:58:42.620Z,8.07
2017-10-07T04:01:10.112Z,4.70
2017-10-07T04:03:37.654Z,5.63
2017-10-07T04:06:05.139Z,4.63
2017-10-07T04:08:32.630Z,5.57
2017-10-07T04:11:00.178Z,4.23
2017-10-07T04:13:27.752Z,3.50
2017-10-07T04:15:55.294Z,6.77
2017-10-07T04:18:23.200Z,3.63
2017-10-07T04:20:50.688Z,4.00
2017-10-07T04:23:18.183Z,4.67
2017-10-07T04:25:45.691Z,4.07
2017-10-07T04:28:13.213Z,4.73
2017-10-07T04:30:40.851Z,3.20
2017-10-07T04:33:08.339Z,4.47
2017-10-07T04:35:35.876Z,3.47
2017-10-07T04:38:03.412Z,3.50
2017-10-07T04:40:30.985Z,2.40
2017-10-07T04:42:58.501Z,4.70
2017-10-07T04:45:26.022Z,4.17
2017-10-07T04:47:53.511Z,3.17
2017-10-07T04:50:21.011Z,3.03
2017-10-07T04:52:48.547Z,2.47
2017-10-07T04:55:16.036Z,3.20
2017-10-07T04:57:43.521Z,2.90
2017-10-07T05:00:11.072Z,4.07
2017-10-07T05:02:38.554Z,3.83
2017-10-07T05:05:06.092Z,4.17
2017-10-07T05:07:33.608Z,3.80
2017-10-07T05:10:01.083Z,4.70
2017-10-07T05:12:28.640Z,4.17
2017-10-07T05:14:56.397Z,5.83
2017-10-07T05:17:23.974Z,5.00
2017-10-07T05:19:51.456Z,4.70
2017-10-07T05:22:19.081Z,5.10
2017-10-07T05:24:46.569Z,4.13
2017-10-07T05:27:14.062Z,5.00
2017-10-07T05:29:41.595Z,4.90
2017-10-07T05:32:09.123Z,5.37
2017-10-07T05:34:36.609Z,5.57
2017-10-07T05:37:04.120Z,4.90
2017-10-07T05:39:31.617Z,4.13
2017-10-07T05:41:59.184Z,4.73
2017-10-07T05:44:26.679Z,6.27
2017-10-07T05:46:54.166Z,5.67
2017-10-07T05:49:21.682Z,6.23
2017-10-07T05:51:49.174Z,6.97
2017-10-07T05:54:16.707Z,5.60
2017-10-07T05:56:44.190Z,5.30
2017-10-07T05:59:11.680Z,5.57
2017-10-07T06:01:39.227Z,5.93
2017-10-07T06:04:06.752Z,5.07
2017-10-07T06:06:34.264Z,6.73
2017-10-07T06:09:01.757Z,5.33
2017-10-07T06:11:29.264Z,5.20
2017-10-07T06:13:56.811Z,5.63
2017-10-07T06:16:24.318Z,4.97
2017-10-07T06:18:51.823Z,3.17
2017-10-07T06:21:19.310Z,3.30
2017-10-07T06:23:46.824Z,4.27
2017-10-07T06:26:14.420Z,3.50
2017-10-07T06:28:41.914Z,4.17
2017-10-07T06:31:09.436Z,3.80
2017-10-07T06:33:36.981Z,4.00
2017-10-07T06:36:04.471Z,3.83
2017-10-07T06:38:32.013Z,4.40
2017-10-07T06:40:59.505Z,4.50
2017-10-07T06:43:26.996Z,4.40
2017-10-07T06:45:54.777Z,5.97
2017-10-07T06:48:22.273Z,5.87
2017-10-07T06:50:49.767Z,5.47
2017-10-07T06:53:17.470Z,4.60
2017-10-07T06:55:44.958Z,5.20
2017-10-07T06:58:12.466Z,5.50
2017-10-07T07:00:40.003Z,5.67
2017-10-07T07:03:07.508Z,5.53
2017-10-07T07:05:34.998Z,5.50
2017-10-07T07:08:02.705Z,5.90
2017-10-07T07:10:30.195Z,5.30
2017-10-07T07:12:57.691Z,4.83
2017-10-07T07:15:25.220Z,7.57
2017-10-07T07:17:52.767Z,5.60
2017-10-07T07:20:20.265Z,6.63
2017-10-07T07:22:47.762Z,6.93
2017-10-07T07:25:15.332Z,4.80
2017-10-07T07:27:42.815Z,5.30
2017-10-07T07:30:10.312Z,5.67
2017-10-07T07:32:37.853Z,4.43
2017-10-07T07:35:05.446Z,4.23
2017-10-07T07:37:32.940Z,4.47
2017-10-07T07:40:00.484Z,5.30
2017-10-07T07:42:27.975Z,4.90
2017-10-07T07:44:55.477Z,5.30
2017-10-07T07:47:23.014Z,5.00
2017-10-07T07:49:50.512Z,4.00
2017-10-07T07:52:18.004Z,5.57
2017-10-07T07:54:45.507Z,4.00
2017-10-07T07:57:13.033Z,3.13
2017-10-07T07:59:40.537Z,4.60
2017-10-07T08:02:08.091Z,4.17
2017-10-07T08:04:35.644Z,3.10
2017-10-07T08:07:03.144Z,4.50
2017-10-07T08:09:30.639Z,3.00
2017-10-07T08:11:58.202Z,3.50
2017-10-07T08:14:25.696Z,3.13
2017-10-07T08:16:53.179Z,3.63
2017-10-07T08:19:20.689Z,3.37
2017-10-07T08:21:48.174Z,3.23
2017-10-07T08:24:15.721Z,4.07
2017-10-07T08:26:43.213Z,4.00
2017-10-07T08:29:10.700Z,3.70
2017-10-07T08:31:38.415Z,3.07
2017-10-07T08:34:05.905Z,3.23
2017-10-07T08:36:33.395Z,2.50
2017-10-07T08:39:00.974Z,3.50
2017-10-07T08:41:28.467Z,3.90
2017-10-07T08:43:55.963Z,3.40
2017-10-07T08:46:23.544Z,3.27
2017-10-07T08:48:51.105Z,5.33
2017-10-07T08:51:18.637Z,3.50
2017-10-07T08:53:46.172Z,4.03
2017-10-07T08:56:13.691Z,4.60
2017-10-07T08:58:41.175Z,4.50
2017-10-07T09:01:08.704Z,3.20
2017-10-07T09:03:36.248Z,5.37
2017-10-07T09:06:03.735Z,3.33
2017-10-07T09:08:31.222Z,3.83
2017-10-07T09:10:58.760Z,4.00
2017-10-07T09:13:26.292Z,2.97
2017-10-07T09:15:53.780Z,4.50
2017-10-07T09:18:21.298Z,3.53
2017-10-07T09:20:48.785Z,3.13
2017-10-07T09:23:16.426Z,3.33
2017-10-07T09:25:43.917Z,3.63
2017-10-07T09:28:11.413Z,4.07
2017-10-07T09:30:39.008Z,2.70
2017-10-07T09:33:06.501Z,4.00
2017-10-07T09:35:34.016Z,3.70
2017-10-07T09:38:01.542Z,2.63
2017-10-07T09:40:29.063Z,3.50
2017-10-07T09:42:56.556Z,7.30
2017-10-07T09:45:24.073Z,3.90
2017-10-07T09:47:51.556Z,4.77
2017-10-07T09:50:19.110Z,3.43
2017-10-07T09:52:46.619Z,8.43
2017-10-07T09:55:14.109Z,8.57
2017-10-07T09:57:41.626Z,6.90
2017-10-07T10:00:09.113Z,3.00
2017-10-07T10:02:36.643Z,7.57
2017-10-07T10:05:04.188Z,2.03
2017-10-07T10:07:31.677Z,2.93
2017-10-07T10:09:59.164Z,2.37
2017-10-07T10:12:26.688Z,2.63
2017-10-07T10:14:54.175Z,3.17
2017-10-07T10:17:21.713Z,2.67
2017-10-07T10:19:49.212Z,3.00
2017-10-07T10:22:16.691Z,2.33
2017-10-07T10:24:44.279Z,4.00
2017-10-07T10:27:11.767Z,2.63
2017-10-07T10:29:39.253Z,4.67
2017-10-07T10:32:06.852Z,2.73
2017-10-07T10:34:34.619Z,4.80
2017-10-07T10:37:02.197Z,9.20
2017-10-07T10:39:29.680Z,2.77
2017-10-07T10:41:57.267Z,2.40
2017-10-07T10:44:24.749Z,3.00
2017-10-07T10:46:52.239Z,2.90
2017-10-07T10:49:19.976Z,3.73
2017-10-07T10:51:47.460Z,4.73
2017-10-07T10:54:14.997Z,8.97
2017-10-07T10:56:42.548Z,3.40
2017-10-07T10:59:10.041Z,2.43
2017-10-07T11:01:37.528Z,2.97
2017-10-07T11:04:05.124Z,4.30
2017-10-07T11:06:32.611Z,4.00
2017-10-07T11:09:00.161Z,3.03
2017-10-07T11:11:27.658Z,3.73
2017-10-07T11:13:55.159Z,4.40
2017-10-07T11:16:22.683Z,4.40
2017-10-07T11:18:50.183Z,3.97
2017-10-07T11:21:17.735Z,4.50
2017-10-07T11:23:45.264Z,3.00
2017-10-07T11:26:12.786Z,4.43
2017-10-07T11:28:40.284Z,3.87
2017-10-07T11:31:07.869Z,3.97
2017-10-07T11:33:35.391Z,3.37
2017-10-07T11:36:02.878Z,3.63
2017-10-07T11:38:30.425Z,3.73
2017-10-07T11:40:57.920Z,2.50
2017-10-07T11:43:25.403Z,2.90
2017-10-07T11:45:52.940Z,2.60
2017-10-07T11:48:20.471Z,3.33
2017-10-07T11:50:47.963Z,2.73
2017-10-07T11:53:15.551Z,3.13
2017-10-07T11:55:43.072Z,3.13
2017-10-07T11:58:10.559Z,3.60
2017-10-07T12:00:38.099Z,3.83
2017-10-07T12:03:05.609Z,3.00
2017-10-07T12:05:33.112Z,2.50
2017-10-07T12:08:00.765Z,3.50
2017-10-07T12:10:28.255Z,3.37
2017-10-07T12:12:55.777Z,4.07
2017-10-07T12:15:23.531Z,4.00
2017-10-07T12:17:51.033Z,4.17
2017-10-07T12:20:18.549Z,4.00
2017-10-07T12:22:46.084Z,3.70
2017-10-07T12:25:13.614Z,3.57
2017-10-07T12:27:41.104Z,4.23
2017-10-07T12:30:08.596Z,3.47
2017-10-07T12:32:36.340Z,3.60
2017-10-07T12:35:03.835Z,3.93
2017-10-07T12:37:31.331Z,4.70
2017-10-07T12:39:58.876Z,3.70
2017-10-07T12:42:26.368Z,3.80
2017-10-07T12:44:53.897Z,3.67
2017-10-07T12:47:21.435Z,4.00
2017-10-07T12:49:48.930Z,4.00
2017-10-07T12:52:17.210Z,4.90
2017-10-07T12:54:44.746Z,3.40
2017-10-07T12:57:12.243Z,4.23
2017-10-07T12:59:39.796Z,4.90
2017-10-07T13:02:07.280Z,5.93
2017-10-07T13:04:34.763Z,4.10
2017-10-07T13:07:02.310Z,3.20
2017-10-07T13:09:29.835Z,3.70
2017-10-07T13:11:57.331Z,3.77
2017-10-07T13:14:24.857Z,5.50
2017-10-07T13:16:52.382Z,3.70
2017-10-07T13:19:19.920Z,5.93
2017-10-07T13:21:47.432Z,5.43
2017-10-07T13:24:14.920Z,3.23
2017-10-07T13:26:42.467Z,4.70
2017-10-07T13:29:09.958Z,4.37
2017-10-07T13:31:37.439Z,3.87
2017-10-07T13:34:04.962Z,4.00
2017-10-07T13:36:32.456Z,4.67
2017-10-07T13:39:00.052Z,4.23
2017-10-07T13:41:27.560Z,4.07
2017-10-07T13:43:55.099Z,5.47
2017-10-07T13:46:22.586Z,6.23
2017-10-07T13:48:50.092Z,10.60
2017-10-07T13:51:17.627Z,5.60
2017-10-07T13:53:45.111Z,5.20
2017-10-07T13:56:12.662Z,4.70
2017-10-07T13:58:40.151Z,4.47
2017-10-07T14:01:07.662Z,6.00
2017-10-07T14:03:35.323Z,5.03
2017-10-07T14:06:02.879Z,6.73
2017-10-07T14:08:30.374Z,5.77
2017-10-07T14:10:57.893Z,6.73
2017-10-07T14:13:25.389Z,5.60
2017-10-07T14:15:52.918Z,6.30
2017-10-07T14:18:20.491Z,8.43
2017-10-07T14:20:47.989Z,7.93
2017-10-07T14:23:15.526Z,7.67
2017-10-07T14:25:43.014Z,9.20
2017-10-07T14:28:10.608Z,8.53
2017-10-07T14:30:38.151Z,6.67
2017-10-07T14:33:05.688Z,6.33
2017-10-07T14:35:33.187Z,7.20
2017-10-07T14:38:00.790Z,9.80
2017-10-07T14:40:28.285Z,8.10
2017-10-07T14:42:55.828Z,6.50
2017-10-07T14:45:23.319Z,7.63
2017-10-07T14:47:50.827Z,7.30
2017-10-07T14:50:19.156Z,8.30
2017-10-07T14:52:46.641Z,8.70
2017-10-07T14:55:14.139Z,9.90
2017-10-07T14:57:41.682Z,8.20
2017-10-07T15:00:09.171Z,8.00
2017-10-07T15:02:36.662Z,8.30
2017-10-07T15:05:04.188Z,8.87
2017-10-07T15:07:31.672Z,8.80
2017-10-07T15:09:59.161Z,9.60
2017-10-07T15:12:26.701Z,10.43
2017-10-07T15:14:54.183Z,8.47
2017-10-07T15:17:21.691Z,8.50
2017-10-07T15:19:49.253Z,9.90
2017-10-07T15:22:16.750Z,11.20
2017-10-07T15:24:44.266Z,11.50
2017-10-07T15:27:11.783Z,9.20
2017-10-07T15:29:39.267Z,6.60
2017-10-07T15:32:06.944Z,7.47
2017-10-07T15:34:34.503Z,7.90
2017-10-07T15:37:02.001Z,8.93
2017-10-07T15:39:29.628Z,8.63
2017-10-07T15:41:57.119Z,7.63
2017-10-07T15:44:24.615Z,9.20
2017-10-07T15:46:52.215Z,8.07
2017-10-07T15:49:19.707Z,8.53
2017-10-07T15:51:47.222Z,9.03
2017-10-07T15:54:14.792Z,7.83
2017-10-07T15:56:42.286Z,7.70
2017-10-07T15:59:09.822Z,9.80
2017-10-07T16:01:37.317Z,10.87
2017-10-07T16:04:04.809Z,9.30
2017-10-07T16:06:32.368Z,8.90
2017-10-07T16:08:59.919Z,10.07
2017-10-07T16:11:27.504Z,13.10
2017-10-07T16:13:54.987Z,7.83
2017-10-07T16:16:22.692Z,7.40
2017-10-07T16:18:50.204Z,8.03
2017-10-07T16:21:17.693Z,10.87
2017-10-07T16:23:45.219Z,9.90
2017-10-07T16:26:12.704Z,11.00
2017-10-07T16:28:40.187Z,11.70
2017-10-07T16:31:07.695Z,9.43
2017-10-07T16:33:35.231Z,10.10
2017-10-07T16:36:03.100Z,11.00
2017-10-07T16:38:30.583Z,12.93
2017-10-07T16:40:58.098Z,8.43
2017-10-07T16:43:25.623Z,8.27
2017-10-07T16:45:53.108Z,8.97
2017-10-07T16:48:20.593Z,9.60
2017-10-07T16:50:48.135Z,10.40
2017-10-07T16:53:15.626Z,13.50
2017-10-07T16:55:43.115Z,9.10
2017-10-07T16:58:10.721Z,10.67
2017-10-07T17:00:38.260Z,8.10
2017-10-07T17:03:05.832Z,9.63
2017-10-07T17:05:33.367Z,8.03
2017-10-07T17:08:00.858Z,9.97
2017-10-07T17:10:28.340Z,8.73
2017-10-07T17:12:55.877Z,10.23
2017-10-07T17:15:23.383Z,7.70
2017-10-07T17:17:50.875Z,10.67
2017-10-07T17:20:18.445Z,11.70
2017-10-07T17:22:45.995Z,9.33
2017-10-07T17:25:13.488Z,7.70
2017-10-07T17:27:41.195Z,10.73
2017-10-07T17:30:08.679Z,6.47
2017-10-07T17:32:36.162Z,12.13
2017-10-07T17:35:03.899Z,7.17
2017-10-07T17:37:31.443Z,7.90
2017-10-07T17:39:59.015Z,6.80
2017-10-07T17:42:26.540Z,9.63
2017-10-07T17:44:54.124Z,6.70
2017-10-07T17:47:21.695Z,9.43
2017-10-07T17:49:49.241Z,9.30
2017-10-07T17:52:16.725Z,6.83
2017-10-07T17:54:44.254Z,7.47
2017-10-07T17:57:11.806Z,6.20
2017-10-07T17:59:39.289Z,6.93
2017-10-07T18:02:06.772Z,8.70
2017-10-07T18:04:34.299Z,9.07
2017-10-07T18:07:01.849Z,6.87
2017-10-07T18:09:29.335Z,5.77
2017-10-07T18:11:56.891Z,7.23
2017-10-07T18:14:24.377Z,5.50
2017-10-07T18:16:51.859Z,6.57
2017-10-07T18:19:19.464Z,7.50
2017-10-07T18:21:46.976Z,6.97
2017-10-07T18:24:14.473Z,8.30
2017-10-07T18:26:41.984Z,7.33
2017-10-07T18:29:09.519Z,15.50
2017-10-07T18:31:37.014Z,9.03
2017-10-07T18:34:04.599Z,11.83
2017-10-07T18:36:32.112Z,6.33
2017-10-07T18:38:59.618Z,8.03
2017-10-07T18:41:27.105Z,10.07
2017-10-07T18:43:54.644Z,10.00
2017-10-07T18:46:22.208Z,7.77
2017-10-07T18:48:49.767Z,7.20
2017-10-07T18:51:17.315Z,9.93
2017-10-07T18:53:44.820Z,8.90
2017-10-07T18:56:12.307Z,7.20
2017-10-07T18:58:40.004Z,10.77
2017-10-07T19:01:07.488Z,8.20
2017-10-07T19:03:34.975Z,11.17
2017-10-07T19:06:02.766Z,27.87
2017-10-07T19:08:30.246Z,10.40
2017-10-07T19:10:57.728Z,9.83
2017-10-07T19:13:25.257Z,7.37
2017-10-07T19:15:52.819Z,7.03
2017-10-07T19:18:20.350Z,9.60
2017-10-07T19:20:47.875Z,10.00
2017-10-07T19:23:15.356Z,8.93
2017-10-07T19:25:42.840Z,8.17
2017-10-07T19:28:10.414Z,7.20
2017-10-07T19:30:37.907Z,8.33
2017-10-07T19:33:05.426Z,8.47
2017-10-07T19:35:32.954Z,11.37
2017-10-07T19:38:00.445Z,8.03
2017-10-07T19:40:27.950Z,8.60
2017-10-07T19:42:55.535Z,8.57
2017-10-07T19:45:23.035Z,11.07
2017-10-07T19:47:50.578Z,9.57
2017-10-07T19:50:18.094Z,8.50
2017-10-07T19:52:45.581Z,9.97
2017-10-07T19:55:13.143Z,6.23
2017-10-07T19:57:40.696Z,8.30
2017-10-07T20:00:08.254Z,8.73
2017-10-07T20:02:35.751Z,8.60
2017-10-07T20:05:03.231Z,8.23
2017-10-07T20:07:30.752Z,6.67
2017-10-07T20:09:58.231Z,8.77
2017-10-07T20:12:25.716Z,7.37
2017-10-07T20:14:53.240Z,10.73
2017-10-07T20:17:20.734Z,12.77
2017-10-07T20:19:48.338Z,9.63
2017-10-07T20:22:15.879Z,6.17
2017-10-07T20:24:43.369Z,9.13
2017-10-07T20:27:11.096Z,10.00
2017-10-07T20:29:39.583Z,8.67
2017-10-07T20:32:07.079Z,7.57
2017-10-07T20:34:34.796Z,8.10
2017-10-07T20:37:02.284Z,7.10
2017-10-07T20:39:29.769Z,5.30
2017-10-07T20:41:57.385Z,5.63
2017-10-07T20:44:25.154Z,8.07
2017-10-07T20:46:52.626Z,5.63
2017-10-07T20:49:20.108Z,6.83
2017-10-07T20:51:47.644Z,6.97
2017-10-07T20:54:15.138Z,6.30
2017-10-07T20:56:42.620Z,6.53
2017-10-07T20:59:10.144Z,5.20
2017-10-07T21:01:37.667Z,8.83
2017-10-07T21:04:05.147Z,6.77
2017-10-07T21:06:32.891Z,8.37
2017-10-07T21:09:00.428Z,7.87
2017-10-07T21:11:27.918Z,5.83
2017-10-07T21:13:55.527Z,6.03
2017-10-07T21:16:23.006Z,6.27
2017-10-07T21:18:50.495Z,13.80
2017-10-07T21:21:18.022Z,6.20
2017-10-07T21:23:45.503Z,7.87
2017-10-07T21:26:12.987Z,9.03
2017-10-07T21:28:40.533Z,6.67
2017-10-07T21:31:08.015Z,6.90
2017-10-07T21:33:35.497Z,6.07
2017-10-07T21:36:03.066Z,7.20
2017-10-07T21:38:30.563Z,5.93
2017-10-07T21:40:58.078Z,7.20
2017-10-07T21:43:25.578Z,6.40
2017-10-07T21:45:53.065Z,7.87
2017-10-07T21:48:20.578Z,4.93
2017-10-07T21:50:48.108Z,5.23
2017-10-07T21:53:15.625Z,5.50
2017-10-07T21:55:43.109Z,9.67
2017-10-07T21:58:10.591Z,9.40
2017-10-07T22:00:38.111Z,6.90
2017-10-07T22:03:05.599Z,6.23
2017-10-07T22:05:33.088Z,4.77
2017-10-07T22:08:00.638Z,5.90
2017-10-07T22:10:28.120Z,5.53
2017-10-07T22:12:55.605Z,7.90
2017-10-07T22:15:23.202Z,4.53
2017-10-07T22:17:50.683Z,6.43
2017-10-07T22:20:18.159Z,5.93
2017-10-07T22:22:45.771Z,6.80
2017-10-07T22:25:13.256Z,4.60
2017-10-07T22:27:40.771Z,5.00
2017-10-07T22:30:08.479Z,6.03
2017-10-07T22:32:35.990Z,4.23
2017-10-07T22:35:03.475Z,5.77
2017-10-07T22:37:31.022Z,6.17
2017-10-07T22:39:58.498Z,4.83
2017-10-07T22:42:25.994Z,5.20
2017-10-07T22:44:53.504Z,5.30
2017-10-07T22:47:20.983Z,5.30
2017-10-07T22:49:48.494Z,6.53
2017-10-07T22:52:16.068Z,7.10
2017-10-07T22:54:43.630Z,7.63
2017-10-07T22:57:11.421Z,5.33
2017-10-07T22:59:38.901Z,7.10
2017-10-07T23:02:06.414Z,6.90
2017-10-07T23:04:33.974Z,6.73
2017-10-07T23:07:01.527Z,6.03
2017-10-07T23:09:29.087Z,5.73
2017-10-07T23:11:56.596Z,6.00
2017-10-07T23:14:24.119Z,5.50
2017-10-07T23:16:51.604Z,5.67
2017-10-07T23:19:19.141Z,10.40
2017-10-07T23:21:46.624Z,5.93
2017-10-07T23:24:14.135Z,4.70
2017-10-07T23:26:41.662Z,5.63
2017-10-07T23:29:09.179Z,3.90
2017-10-07T23:31:36.655Z,6.93
2017-10-07T23:34:04.195Z,5.33
2017-10-07T23:36:31.736Z,3.93
2017-10-07T23:38:59.297Z,4.00
2017-10-07T23:41:27.060Z,5.17
2017-10-07T23:43:54.619Z,4.43
2017-10-07T23:46:22.180Z,5.97
2017-10-07T23:48:49.709Z,3.80
2017-10-07T23:51:17.198Z,3.50
2017-10-07T23:53:44.772Z,3.70
2017-10-07T23:56:12.282Z,3.20
2017-10-07T23:58:39.777Z,3.90
